createdAt,value
2022-08-09T00:00:14.554Z,3.00
2022-08-09T00:02:50.075Z,2.67
2022-08-09T00:06:16.421Z,2.70
2022-08-09T00:08:10.197Z,3.47
2022-08-09T00:10:41.222Z,3.00
2022-08-09T00:13:16.899Z,4.13
2022-08-09T00:15:59.526Z,3.00
2022-08-09T00:18:35.777Z,3.40
2022-08-09T00:21:08.338Z,2.78
2022-08-09T00:23:57.991Z,3.17
2022-08-09T00:26:32.101Z,3.70
2022-08-09T00:29:02.030Z,3.33
2022-08-09T00:31:58.507Z,3.75
2022-08-09T00:34:19.465Z,3.75
2022-08-09T00:36:48.943Z,3.92
2022-08-09T00:40:09.338Z,3.47
2022-08-09T00:44:15.598Z,3.95
2022-08-09T00:44:54.170Z,3.22
2022-08-09T00:47:23.868Z,3.45
2022-08-09T00:49:55.027Z,3.67
2022-08-09T00:52:30.532Z,3.90
2022-08-09T00:55:00.967Z,4.55
2022-08-09T00:57:34.526Z,3.47
2022-08-09T01:00:20.701Z,2.80
2022-08-09T01:03:13.483Z,3.20
2022-08-09T01:05:55.739Z,3.38
2022-08-09T01:08:49.392Z,3.50
2022-08-09T01:11:36.605Z,3.25
2022-08-09T01:14:09.991Z,3.10
2022-08-09T01:16:47.507Z,3.15
2022-08-09T01:19:40.105Z,3.25
2022-08-09T01:22:34.064Z,3.30
2022-08-09T01:25:27.401Z,3.00
2022-08-09T01:27:57.901Z,3.50
2022-08-09T01:30:33.646Z,2.88
2022-08-09T01:33:04.893Z,3.17
2022-08-09T01:35:38.477Z,3.03
2022-08-09T01:38:15.584Z,3.38
2022-08-09T01:40:52.704Z,2.92
2022-08-09T01:43:50.898Z,2.97
2022-08-09T01:46:29.623Z,3.28
2022-08-09T01:49:10.427Z,3.15
2022-08-09T01:51:42.835Z,2.85
2022-08-09T01:54:14.198Z,3.17
2022-08-09T01:56:47.226Z,2.45
2022-08-09T01:59:23.114Z,2.92
2022-08-09T02:01:59.810Z,3.50
2022-08-09T02:04:30.372Z,3.38
2022-08-09T02:08:35.299Z,3.40
2022-08-09T02:10:08.448Z,2.83
2022-08-09T02:12:38.029Z,3.83
2022-08-09T02:15:11.717Z,2.88
2022-08-09T02:18:01.180Z,3.67
2022-08-09T02:20:34.776Z,3.50
2022-08-09T02:23:17.104Z,3.25
2022-08-09T02:25:51.277Z,3.60
2022-08-09T02:28:25.753Z,3.25
2022-08-09T02:30:58.894Z,3.10
2022-08-09T02:33:58.369Z,3.78
2022-08-09T02:36:22.780Z,3.63
2022-08-09T02:38:56.154Z,4.10
2022-08-09T02:41:28.723Z,5.22
2022-08-09T02:44:10.545Z,5.10
2022-08-09T02:46:52.600Z,4.35
2022-08-09T02:49:27.182Z,4.10
2022-08-09T02:52:07.929Z,4.13
2022-08-09T02:54:53.853Z,4.53
2022-08-09T02:57:23.951Z,3.40
2022-08-09T03:00:21.389Z,3.83
2022-08-09T03:02:58.144Z,3.53
2022-08-09T03:05:27.026Z,3.63
2022-08-09T03:07:55.926Z,3.95
2022-08-09T03:10:24.879Z,3.78
2022-08-09T03:12:53.668Z,3.78
2022-08-09T03:15:23.139Z,3.50
2022-08-09T03:17:53.852Z,3.30
2022-08-09T03:20:29.627Z,3.28
2022-08-09T03:23:05.557Z,3.22
2022-08-09T03:25:58.093Z,3.13
2022-08-09T03:28:28.038Z,3.03
2022-08-09T03:30:58.802Z,2.58
2022-08-09T03:33:54.316Z,3.03
2022-08-09T03:36:16.764Z,2.75
2022-08-09T03:38:45.082Z,2.70
2022-08-09T03:41:18.301Z,2.60
2022-08-09T03:44:03.060Z,2.40
2022-08-09T03:46:35.135Z,2.67
2022-08-09T03:49:08.777Z,2.47
2022-08-09T03:51:55.268Z,2.58
2022-08-09T03:54:29.158Z,2.50
2022-08-09T03:56:59.572Z,2.50
2022-08-09T03:59:52.754Z,3.30
2022-08-09T04:02:15.386Z,3.03
2022-08-09T04:04:53.925Z,2.40
2022-08-09T04:07:21.476Z,2.60
2022-08-09T04:09:52.886Z,2.53
2022-08-09T04:12:30.061Z,2.65
2022-08-09T04:15:01.372Z,2.80
2022-08-09T04:17:29.808Z,2.33
2022-08-09T04:19:57.193Z,2.75
2022-08-09T04:22:25.346Z,2.70
2022-08-09T04:24:55.248Z,3.00
2022-08-09T04:27:22.503Z,2.42
2022-08-09T04:29:50.461Z,2.40
2022-08-09T04:32:23.744Z,2.90
2022-08-09T04:34:58.936Z,2.47
2022-08-09T04:37:45.933Z,2.72
2022-08-09T04:40:29.092Z,3.20
2022-08-09T04:43:02.456Z,3.35
2022-08-09T04:45:31.047Z,2.85
2022-08-09T04:48:06.692Z,2.60
2022-08-09T04:53:13.002Z,2.83
2022-08-09T04:55:58.467Z,2.85
2022-08-09T04:58:31.662Z,2.58
2022-08-09T05:03:41.201Z,2.70
2022-08-09T05:06:27.234Z,2.38
2022-08-09T05:09:00.698Z,3.17
2022-08-09T05:11:30.600Z,2.63
2022-08-09T05:14:00.204Z,2.60
2022-08-09T05:16:31.676Z,2.70
2022-08-09T05:19:00.153Z,2.90
2022-08-09T05:21:30.249Z,3.00
2022-08-09T05:24:01.401Z,2.75
2022-08-09T05:26:36.311Z,2.90
2022-08-09T05:29:17.646Z,3.10
2022-08-09T05:31:56.111Z,3.00
2022-08-09T05:34:30.156Z,2.65
2022-08-09T05:37:11.335Z,3.03
2022-08-09T05:39:42.631Z,2.53
2022-08-09T05:42:20.786Z,2.58
2022-08-09T05:44:53.488Z,2.78
2022-08-09T05:47:22.997Z,2.47
2022-08-09T05:50:31.204Z,2.35
2022-08-09T05:52:41.760Z,2.60
2022-08-09T05:55:20.394Z,2.67
2022-08-09T05:57:50.860Z,2.42
2022-08-09T06:00:26.364Z,3.08
2022-08-09T06:02:56.884Z,2.75
2022-08-09T06:05:31.243Z,3.05
2022-08-09T06:08:18.986Z,2.75
2022-08-09T06:10:47.281Z,2.88
2022-08-09T06:13:20.663Z,2.72
2022-08-09T06:15:50.983Z,3.20
2022-08-09T06:18:24.002Z,3.20
2022-08-09T06:20:54.525Z,2.90
2022-08-09T06:23:55.434Z,2.80
2022-08-09T06:26:28.597Z,3.25
2022-08-09T06:29:00.132Z,2.70
2022-08-09T06:31:40.567Z,2.40
2022-08-09T06:34:19.128Z,3.03
2022-08-09T06:36:46.792Z,2.95
2022-08-09T06:39:15.319Z,2.95
2022-08-09T06:42:06.419Z,3.40
2022-08-09T06:44:30.185Z,3.42
2022-08-09T06:46:57.408Z,3.92
2022-08-09T06:49:44.697Z,2.80
2022-08-09T06:52:15.925Z,3.72
2022-08-09T06:54:43.742Z,3.20
2022-08-09T06:57:13.470Z,2.55
2022-08-09T07:00:51.630Z,2.95
2022-08-09T07:02:31.119Z,2.90
2022-08-09T07:05:00.525Z,3.50
2022-08-09T07:08:00.144Z,2.92
2022-08-09T07:10:29.506Z,3.20
2022-08-09T07:12:58.278Z,2.90
2022-08-09T07:15:53.870Z,3.20
2022-08-09T07:18:14.167Z,2.85
2022-08-09T07:20:43.491Z,2.70
2022-08-09T07:23:18.858Z,2.90
2022-08-09T07:25:52.581Z,2.65
2022-08-09T07:28:29.984Z,3.10
2022-08-09T07:30:57.442Z,2.67
2022-08-09T07:33:24.718Z,2.95
2022-08-09T07:35:54.150Z,3.35
2022-08-09T07:38:23.340Z,3.15
2022-08-09T07:41:08.294Z,3.03
2022-08-09T07:43:50.148Z,3.05
2022-08-09T07:46:23.441Z,2.85
2022-08-09T07:49:00.212Z,2.65
2022-08-09T07:52:06.260Z,3.20
2022-08-09T07:54:19.117Z,2.88
2022-08-09T07:56:54.960Z,3.25
2022-08-09T07:59:25.382Z,2.72
2022-08-09T08:02:00.866Z,3.30
2022-08-09T08:04:31.607Z,2.83
2022-08-09T08:07:09.606Z,3.03
2022-08-09T08:09:53.567Z,2.88
2022-08-09T08:12:28.341Z,3.05
2022-08-09T08:14:57.304Z,3.30
2022-08-09T08:17:54.008Z,3.10
2022-08-09T08:20:13.648Z,3.00
2022-08-09T08:22:41.724Z,4.03
2022-08-09T08:25:13.862Z,3.40
2022-08-09T08:27:43.048Z,3.22
2022-08-09T08:30:11.841Z,3.28
2022-08-09T08:32:41.721Z,3.65
2022-08-09T08:35:22.643Z,3.70
2022-08-09T08:38:01.993Z,3.10
2022-08-09T08:40:36.905Z,4.53
2022-08-09T08:43:13.575Z,4.78
2022-08-09T08:45:59.599Z,3.50
2022-08-09T08:48:33.309Z,3.05
2022-08-09T08:51:01.446Z,4.07
2022-08-09T08:53:32.186Z,3.20
2022-08-09T08:56:07.448Z,3.60
2022-08-09T08:58:36.347Z,4.05
2022-08-09T09:01:09.056Z,3.40
2022-08-09T09:03:50.564Z,4.03
2022-08-09T09:06:19.965Z,4.22
2022-08-09T09:08:52.754Z,3.78
2022-08-09T09:11:28.982Z,4.00
2022-08-09T09:13:59.499Z,3.55
2022-08-09T09:16:34.322Z,4.43
2022-08-09T09:19:41.495Z,3.60
2022-08-09T09:22:05.486Z,3.80
2022-08-09T09:25:00.811Z,3.40
2022-08-09T09:28:06.482Z,3.78
2022-08-09T09:30:41.385Z,4.70
2022-08-09T09:33:15.339Z,3.60
2022-08-09T09:36:20.472Z,3.63
2022-08-09T09:38:57.476Z,3.20
2022-08-09T09:41:25.014Z,3.28
2022-08-09T09:44:12.542Z,3.50
2022-08-09T09:46:51.409Z,3.67
2022-08-09T09:49:49.931Z,3.40
2022-08-09T09:52:35.576Z,3.70
2022-08-09T09:55:24.469Z,3.33
2022-08-09T09:58:19.085Z,3.47
2022-08-09T10:00:58.782Z,3.20
2022-08-09T10:03:57.818Z,3.40
2022-08-09T10:06:42.646Z,2.92
2022-08-09T10:09:23.227Z,3.22
2022-08-09T10:12:15.023Z,3.42
2022-08-09T10:14:51.386Z,3.33
2022-08-09T10:17:51.194Z,3.75
2022-08-09T10:20:15.008Z,3.13
2022-08-09T10:22:42.743Z,3.17
2022-08-09T10:25:14.181Z,3.10
2022-08-09T10:27:56.767Z,2.90
2022-08-09T10:34:08.255Z,3.10
2022-08-09T10:36:05.227Z,3.10
2022-08-09T10:38:56.471Z,2.90
2022-08-09T10:41:25.725Z,3.20
2022-08-09T10:44:01.222Z,3.25
2022-08-09T10:46:57.582Z,3.27
2022-08-09T10:49:51.366Z,3.42
2022-08-09T10:52:27.232Z,3.63
2022-08-09T10:54:55.993Z,3.15
2022-08-09T10:57:37.560Z,3.25
2022-08-09T11:00:37.425Z,3.40
2022-08-09T11:03:27.202Z,3.10
2022-08-09T11:06:22.704Z,3.40
2022-08-09T11:08:51.139Z,3.03
2022-08-09T11:11:21.474Z,2.67
2022-08-09T11:14:28.090Z,3.05
2022-08-09T11:16:56.635Z,3.30
2022-08-09T11:20:10.796Z,3.67
2022-08-09T11:22:45.830Z,3.03
2022-08-09T11:25:17.553Z,3.13
2022-08-09T11:28:03.634Z,3.40
2022-08-09T11:30:36.757Z,3.20
2022-08-09T11:33:19.412Z,3.53
2022-08-09T11:35:55.148Z,3.20
2022-08-09T11:38:34.743Z,3.40
2022-08-09T11:41:15.763Z,3.17
2022-08-09T11:43:49.144Z,3.25
2022-08-09T11:46:26.523Z,3.30
2022-08-09T11:49:05.134Z,3.10
2022-08-09T11:53:01.086Z,3.00
2022-08-09T11:55:52.474Z,3.13
2022-08-09T11:58:15.361Z,3.05
2022-08-09T12:00:53.133Z,3.50
2022-08-09T12:03:50.310Z,3.03
2022-08-09T12:06:26.837Z,3.53
2022-08-09T12:09:01.329Z,3.00
2022-08-09T12:11:31.475Z,2.80
2022-08-09T12:14:28.512Z,3.15
2022-08-09T12:16:59.787Z,2.97
2022-08-09T12:19:32.678Z,3.65
2022-08-09T12:22:03.394Z,3.40
2022-08-09T12:24:32.089Z,3.35
2022-08-09T12:29:15.116Z,2.88
2022-08-09T12:30:01.885Z,3.45
2022-08-09T12:32:44.888Z,3.50
2022-08-09T12:35:17.192Z,3.60
2022-08-09T12:37:52.447Z,3.38
2022-08-09T12:40:23.349Z,4.18
2022-08-09T12:42:52.157Z,4.07
2022-08-09T12:45:33.557Z,4.00
2022-08-09T12:48:28.024Z,3.80
2022-08-09T12:51:00.064Z,3.95
2022-08-09T12:53:40.726Z,3.60
2022-08-09T12:56:34.893Z,4.00
2022-08-09T12:59:10.129Z,3.17
2022-08-09T13:01:47.095Z,3.50
2022-08-09T13:04:36.293Z,3.42
2022-08-09T13:07:19.628Z,3.40
2022-08-09T13:10:05.727Z,3.63
2022-08-09T13:12:33.298Z,3.40
2022-08-09T13:15:08.500Z,4.05
2022-08-09T13:18:03.451Z,3.78
2022-08-09T13:21:20.439Z,3.20
2022-08-09T13:24:52.735Z,3.10
2022-08-09T13:26:50.132Z,3.30
2022-08-09T13:29:42.112Z,3.33
2022-08-09T13:32:17.073Z,3.22
2022-08-09T13:34:48.920Z,3.70
2022-08-09T13:37:24.759Z,3.35
2022-08-09T13:41:50.811Z,3.88
2022-08-09T13:42:54.619Z,3.55
2022-08-09T13:45:21.828Z,3.25
2022-08-09T13:47:59.916Z,3.45
2022-08-09T13:50:30.268Z,3.50
2022-08-09T13:52:58.876Z,3.72
2022-08-09T13:55:29.012Z,3.55
2022-08-09T13:57:58.395Z,3.58
2022-08-09T14:00:29.462Z,3.75
2022-08-09T14:03:03.864Z,3.40
2022-08-09T14:05:58.141Z,3.30
2022-08-09T14:08:30.481Z,3.22
2022-08-09T14:11:00.635Z,3.42
2022-08-09T14:14:23.567Z,3.30
2022-08-09T14:16:28.800Z,4.00
2022-08-09T14:18:58.397Z,3.88
2022-08-09T14:21:29.217Z,3.25
2022-08-09T14:23:57.658Z,3.80
2022-08-09T14:26:33.606Z,3.40
2022-08-09T14:30:04.408Z,3.17
2022-08-09T14:31:57.925Z,3.40
2022-08-09T14:34:33.013Z,3.78
2022-08-09T14:37:07.431Z,3.40
2022-08-09T14:39:47.817Z,3.65
2022-08-09T14:42:32.193Z,3.30
2022-08-09T14:46:38.826Z,3.00
2022-08-09T14:47:58.558Z,3.72
2022-08-09T14:50:29.411Z,3.45
2022-08-09T14:52:58.178Z,3.50
2022-08-09T14:55:25.797Z,3.20
2022-08-09T14:57:59.549Z,3.03
2022-08-09T15:00:27.023Z,3.67
2022-08-09T15:02:58.389Z,3.50
2022-08-09T15:05:27.593Z,3.53
2022-08-09T15:07:58.354Z,3.10
2022-08-09T15:10:27.185Z,3.60
2022-08-09T15:12:56.094Z,3.28
2022-08-09T15:15:24.469Z,3.38
2022-08-09T15:17:56.338Z,3.10
2022-08-09T15:22:01.100Z,3.30
2022-08-09T15:24:02.953Z,3.30
2022-08-09T15:25:58.885Z,3.60
2022-08-09T15:28:28.459Z,3.55
2022-08-09T15:31:10.428Z,3.47
2022-08-09T15:34:33.037Z,3.45
2022-08-09T15:36:31.967Z,4.05
2022-08-09T15:39:00.105Z,3.40
2022-08-09T15:41:32.128Z,3.08
2022-08-09T15:44:03.815Z,3.25
2022-08-09T15:46:34.489Z,3.20
2022-08-09T15:49:22.477Z,3.70
2022-08-09T15:52:03.626Z,3.20
2022-08-09T15:54:46.231Z,3.30
2022-08-09T15:57:18.978Z,3.60
2022-08-09T15:59:52.463Z,3.45
2022-08-09T16:02:27.221Z,3.30
2022-08-09T16:04:54.736Z,3.40
2022-08-09T16:07:21.968Z,3.60
2022-08-09T16:09:57.865Z,3.20
2022-08-09T16:12:33.120Z,3.25
2022-08-09T16:15:01.576Z,3.40
2022-08-09T16:17:29.122Z,3.30
2022-08-09T16:20:04.534Z,3.55
2022-08-09T16:22:37.617Z,3.47
2022-08-09T16:25:11.953Z,3.30
2022-08-09T16:27:40.743Z,3.33
2022-08-09T16:30:15.333Z,3.40
2022-08-09T16:33:08.817Z,3.40
2022-08-09T16:35:55.849Z,3.55
2022-08-09T16:38:25.221Z,3.38
2022-08-09T16:40:52.483Z,3.80
2022-08-09T16:43:20.909Z,3.50
2022-08-09T16:45:53.480Z,3.17
2022-08-09T16:48:39.465Z,3.53
2022-08-09T16:51:13.717Z,3.50
2022-08-09T16:54:25.067Z,3.38
2022-08-09T16:56:32.800Z,3.40
2022-08-09T16:59:06.453Z,3.95
2022-08-09T17:01:37.567Z,3.58
2022-08-09T17:04:06.878Z,3.50
2022-08-09T17:08:40.154Z,3.50
2022-08-09T17:09:46.137Z,3.10
2022-08-09T17:12:09.614Z,3.60
2022-08-09T17:14:37.050Z,3.33
2022-08-09T17:17:25.949Z,3.10
2022-08-09T17:20:29.932Z,3.40
2022-08-09T17:22:50.386Z,3.60
2022-08-09T17:25:20.461Z,3.40
2022-08-09T17:27:53.803Z,3.70
2022-08-09T17:30:28.091Z,3.55
2022-08-09T17:33:05.296Z,4.15
2022-08-09T17:35:47.431Z,3.85
2022-08-09T17:38:32.386Z,3.60
2022-08-09T17:41:02.896Z,3.80
2022-08-09T17:43:35.766Z,3.63
2022-08-09T17:46:08.665Z,4.10
2022-08-09T17:48:39.695Z,3.75
2022-08-09T17:51:19.207Z,3.60
2022-08-09T17:53:51.863Z,3.92
2022-08-09T17:56:27.556Z,4.03
2022-08-09T17:59:03.030Z,4.05
2022-08-09T18:01:58.034Z,3.78
2022-08-09T18:04:19.874Z,3.92
2022-08-09T18:06:54.008Z,3.72
2022-08-09T18:09:23.839Z,3.80
2022-08-09T18:12:05.230Z,3.92
2022-08-09T18:14:50.008Z,3.90
2022-08-09T18:17:27.517Z,4.03
2022-08-09T18:21:00.343Z,3.60
2022-08-09T18:22:57.040Z,3.80
2022-08-09T18:25:50.345Z,3.75
2022-08-09T18:28:21.671Z,3.95
2022-08-09T18:31:01.436Z,3.97
2022-08-09T18:33:28.987Z,3.72
2022-08-09T18:35:59.163Z,3.80
2022-08-09T18:38:27.872Z,3.67
2022-08-09T18:40:55.857Z,3.80
2022-08-09T18:43:24.936Z,3.97
2022-08-09T18:46:50.149Z,4.05
2022-08-09T18:48:42.419Z,3.85
2022-08-09T18:51:10.042Z,3.70
2022-08-09T18:53:56.515Z,3.97
2022-08-09T18:56:28.208Z,3.40
2022-08-09T18:58:57.302Z,3.80
2022-08-09T19:01:26.016Z,3.70
2022-08-09T19:04:01.166Z,3.75
2022-08-09T19:06:34.402Z,3.83
2022-08-09T19:09:04.775Z,3.75
2022-08-09T19:11:37.616Z,3.70
2022-08-09T19:14:06.575Z,3.58
2022-08-09T19:16:36.011Z,3.88
2022-08-09T19:19:21.365Z,4.07
2022-08-09T19:22:04.692Z,4.07
2022-08-09T19:24:38.655Z,4.05
2022-08-09T19:27:21.642Z,3.53
2022-08-09T19:30:21.394Z,4.15
2022-08-09T19:32:36.890Z,3.97
2022-08-09T19:35:04.964Z,3.78
2022-08-09T19:37:41.140Z,3.90
2022-08-09T19:40:20.173Z,4.25
2022-08-09T19:42:49.633Z,4.25
2022-08-09T19:45:17.735Z,4.00
2022-08-09T19:47:45.985Z,4.22
2022-08-09T19:50:51.303Z,4.43
2022-08-09T19:53:04.052Z,3.75
2022-08-09T19:56:03.405Z,4.43
2022-08-09T19:58:30.177Z,4.60
2022-08-09T20:00:58.080Z,4.93
2022-08-09T20:04:23.751Z,4.68
2022-08-09T20:06:22.372Z,4.57
2022-08-09T20:08:55.550Z,5.32
2022-08-09T20:11:26.542Z,4.28
2022-08-09T20:13:55.504Z,5.03
2022-08-09T20:16:34.395Z,4.25
2022-08-09T20:19:49.156Z,4.18
2022-08-09T20:21:56.953Z,4.60
2022-08-09T20:24:29.610Z,4.88
2022-08-09T20:27:02.101Z,5.28
2022-08-09T20:29:37.013Z,5.45
2022-08-09T20:32:29.907Z,4.90
2022-08-09T20:34:57.836Z,4.60
2022-08-09T20:37:25.570Z,4.53
2022-08-09T20:40:18.380Z,4.60
2022-08-09T20:42:53.199Z,5.00
2022-08-09T20:46:01.009Z,4.50
2022-08-09T20:48:20.957Z,5.22
2022-08-09T20:56:21.076Z,4.93
2022-08-09T21:01:34.197Z,4.82
2022-08-09T21:04:08.291Z,4.78
2022-08-09T21:06:51.597Z,4.60
2022-08-09T21:09:24.911Z,5.80
2022-08-09T21:18:21.807Z,4.90
2022-08-09T21:20:08.364Z,4.30
2022-08-09T21:22:47.032Z,5.05
2022-08-09T21:25:38.474Z,4.80
2022-08-09T21:28:07.553Z,4.72
2022-08-09T21:33:09.474Z,5.05
2022-08-09T21:35:39.529Z,4.85
2022-08-09T21:38:11.498Z,5.53
2022-08-09T21:40:39.692Z,4.75
2022-08-09T21:43:08.333Z,4.82
2022-08-09T21:45:38.974Z,5.32
2022-08-09T21:48:07.787Z,5.63
2022-08-09T21:50:38.379Z,4.13
2022-08-09T21:53:19.804Z,4.82
2022-08-09T21:55:51.256Z,4.55
2022-08-09T21:58:18.455Z,4.72
2022-08-09T22:00:48.785Z,5.07
2022-08-09T22:03:25.535Z,4.93
2022-08-09T22:05:54.220Z,5.00
2022-08-09T22:08:24.733Z,4.90
2022-08-09T22:11:00.764Z,4.90
2022-08-09T22:13:43.293Z,4.50
2022-08-09T22:16:11.379Z,5.25
2022-08-09T22:18:52.905Z,4.57
2022-08-09T22:21:24.055Z,4.20
2022-08-09T22:24:01.182Z,4.78
2022-08-09T22:26:34.692Z,5.40
2022-08-09T22:29:07.556Z,4.22
2022-08-09T22:31:37.837Z,5.10
2022-08-09T22:34:09.695Z,5.28
2022-08-09T22:36:45.984Z,5.03
2022-08-09T22:39:46.994Z,4.72
2022-08-09T22:42:03.850Z,5.43
2022-08-09T22:44:32.814Z,5.07
2022-08-09T22:48:10.614Z,4.90
2022-08-09T22:49:52.031Z,4.85
2022-08-09T22:52:19.951Z,5.13
2022-08-09T22:54:48.128Z,4.80
2022-08-09T22:57:15.672Z,5.30
2022-08-09T22:59:58.317Z,4.63
2022-08-09T23:02:27.468Z,4.38
2022-08-09T23:04:55.293Z,5.13
2022-08-09T23:08:21.086Z,4.88
2022-08-09T23:10:31.992Z,4.53
2022-08-09T23:13:00.380Z,5.32
2022-08-09T23:15:28.940Z,4.70
2022-08-09T23:17:57.017Z,4.90
2022-08-09T23:20:26.466Z,4.38
2022-08-09T23:22:53.750Z,4.43
2022-08-09T23:25:21.211Z,3.72
2022-08-09T23:28:14.163Z,5.30
2022-08-09T23:30:35.550Z,4.85
2022-08-09T23:33:02.606Z,4.70
2022-08-09T23:35:29.714Z,4.68
2022-08-09T23:37:56.891Z,4.55
2022-08-09T23:40:23.994Z,4.93
2022-08-09T23:42:51.346Z,5.35
2022-08-09T23:45:37.854Z,5.30
2022-08-09T23:48:08.962Z,5.22
2022-08-09T23:50:36.588Z,5.20
2022-08-09T23:53:10.271Z,5.32
2022-08-09T23:55:39.594Z,4.57
2022-08-09T23:58:27.617Z,4.88
